sensor_id;sensor_type;location;lat;lon;timestamp;temperature;humidity
21261;DHT22;10788;47.930;9.766;2023-04-06T00:00:50;1.30;99.90
21261;DHT22;10788;47.930;9.766;2023-04-06T00:03:17;1.30;99.90
21261;DHT22;10788;47.930;9.766;2023-04-06T00:05:42;1.40;99.90
21261;DHT22;10788;47.930;9.766;2023-04-06T00:08:08;1.30;99.90
21261;DHT22;10788;47.930;9.766;2023-04-06T00:10:34;1.30;99.90
21261;DHT22;10788;47.930;9.766;2023-04-06T00:13:00;1.30;99.90
21261;DHT22;10788;47.930;9.766;2023-04-06T00:15:26;1.40;99.90
21261;DHT22;10788;47.930;9.766;2023-04-06T00:17:52;1.30;99.90
21261;DHT22;10788;47.930;9.766;2023-04-06T00:20:18;1.40;99.90
21261;DHT22;10788;47.930;9.766;2023-04-06T00:22:44;1.40;99.90
21261;DHT22;10788;47.930;9.766;2023-04-06T00:25:11;1.40;99.90
21261;DHT22;10788;47.930;9.766;2023-04-06T00:27:37;1.40;99.90
21261;DHT22;10788;47.930;9.766;2023-04-06T00:30:06;1.40;99.90
21261;DHT22;10788;47.930;9.766;2023-04-06T00:32:33;1.40;99.90
21261;DHT22;10788;47.930;9.766;2023-04-06T00:34:59;1.40;99.90
21261;DHT22;10788;47.930;9.766;2023-04-06T00:37:25;1.40;99.90
21261;DHT22;10788;47.930;9.766;2023-04-06T00:39:50;1.40;99.90
21261;DHT22;10788;47.930;9.766;2023-04-06T00:42:21;1.30;99.90
21261;DHT22;10788;47.930;9.766;2023-04-06T00:44:58;1.30;99.90
21261;DHT22;10788;47.930;9.766;2023-04-06T00:47:24;1.30;99.90
21261;DHT22;10788;47.930;9.766;2023-04-06T00:49:51;1.20;99.90
21261;DHT22;10788;47.930;9.766;2023-04-06T00:52:17;1.30;99.90
21261;DHT22;10788;47.930;9.766;2023-04-06T00:54:43;1.30;99.90
21261;DHT22;10788;47.930;9.766;2023-04-06T00:57:09;1.30;99.90
21261;DHT22;10788;47.930;9.766;2023-04-06T00:59:35;1.20;99.90
21261;DHT22;10788;47.930;9.766;2023-04-06T01:02:01;1.30;99.90
21261;DHT22;10788;47.930;9.766;2023-04-06T01:04:27;1.20;99.90
21261;DHT22;10788;47.930;9.766;2023-04-06T01:06:52;1.10;99.90
21261;DHT22;10788;47.930;9.766;2023-04-06T01:09:18;1.10;99.90
21261;DHT22;10788;47.930;9.766;2023-04-06T01:11:44;1.10;99.90
21261;DHT22;10788;47.930;9.766;2023-04-06T01:14:10;1.10;99.90
21261;DHT22;10788;47.930;9.766;2023-04-06T01:16:36;1.00;99.90
21261;DHT22;10788;47.930;9.766;2023-04-06T01:19:10;1.00;99.90
21261;DHT22;10788;47.930;9.766;2023-04-06T01:21:37;1.00;99.90
21261;DHT22;10788;47.930;9.766;2023-04-06T01:24:03;1.00;99.90
21261;DHT22;10788;47.930;9.766;2023-04-06T01:26:29;1.00;99.90
21261;DHT22;10788;47.930;9.766;2023-04-06T01:28:56;1.00;99.90
21261;DHT22;10788;47.930;9.766;2023-04-06T01:31:22;0.90;99.90
21261;DHT22;10788;47.930;9.766;2023-04-06T01:33:47;0.90;99.90
21261;DHT22;10788;47.930;9.766;2023-04-06T01:36:14;0.90;99.90
21261;DHT22;10788;47.930;9.766;2023-04-06T01:38:40;0.90;99.90
21261;DHT22;10788;47.930;9.766;2023-04-06T01:41:07;0.80;99.90
21261;DHT22;10788;47.930;9.766;2023-04-06T01:43:32;0.80;99.90
21261;DHT22;10788;47.930;9.766;2023-04-06T01:45:58;0.90;99.90
21261;DHT22;10788;47.930;9.766;2023-04-06T01:48:23;0.80;99.90
21261;DHT22;10788;47.930;9.766;2023-04-06T01:50:50;0.80;99.90
21261;DHT22;10788;47.930;9.766;2023-04-06T01:53:16;0.80;99.90
21261;DHT22;10788;47.930;9.766;2023-04-06T01:55:41;0.70;99.90
21261;DHT22;10788;47.930;9.766;2023-04-06T01:58:07;0.70;99.90
21261;DHT22;10788;47.930;9.766;2023-04-06T02:00:33;0.80;99.90
21261;DHT22;10788;47.930;9.766;2023-04-06T02:02:58;0.70;99.90
21261;DHT22;10788;47.930;9.766;2023-04-06T02:05:25;0.80;99.90
21261;DHT22;10788;47.930;9.766;2023-04-06T02:07:51;0.70;99.90
21261;DHT22;10788;47.930;9.766;2023-04-06T02:10:17;0.70;99.90
21261;DHT22;10788;47.930;9.766;2023-04-06T02:12:43;0.70;99.90
21261;DHT22;10788;47.930;9.766;2023-04-06T02:15:09;0.70;99.90
21261;DHT22;10788;47.930;9.766;2023-04-06T02:17:35;0.60;99.90
21261;DHT22;10788;47.930;9.766;2023-04-06T02:20:00;0.60;99.90
21261;DHT22;10788;47.930;9.766;2023-04-06T02:22:26;0.60;99.90
21261;DHT22;10788;47.930;9.766;2023-04-06T02:24:51;0.50;99.90
21261;DHT22;10788;47.930;9.766;2023-04-06T02:27:17;0.50;99.90
21261;DHT22;10788;47.930;9.766;2023-04-06T02:29:43;0.40;99.90
21261;DHT22;10788;47.930;9.766;2023-04-06T02:32:08;0.40;99.90
21261;DHT22;10788;47.930;9.766;2023-04-06T02:34:34;0.20;99.90
21261;DHT22;10788;47.930;9.766;2023-04-06T02:37:00;0.30;99.90
21261;DHT22;10788;47.930;9.766;2023-04-06T02:39:25;0.20;99.90
21261;DHT22;10788;47.930;9.766;2023-04-06T02:41:51;0.20;99.90
21261;DHT22;10788;47.930;9.766;2023-04-06T02:44:18;0.20;99.90
21261;DHT22;10788;47.930;9.766;2023-04-06T02:46:43;0.10;99.90
21261;DHT22;10788;47.930;9.766;2023-04-06T02:49:09;0.30;99.90
21261;DHT22;10788;47.930;9.766;2023-04-06T02:51:35;0.30;99.90
21261;DHT22;10788;47.930;9.766;2023-04-06T02:54:00;0.20;99.90
21261;DHT22;10788;47.930;9.766;2023-04-06T02:56:26;0.20;99.90
21261;DHT22;10788;47.930;9.766;2023-04-06T02:58:51;0.10;99.90
21261;DHT22;10788;47.930;9.766;2023-04-06T03:01:17;0.10;99.90
21261;DHT22;10788;47.930;9.766;2023-04-06T03:03:43;0.10;99.90
21261;DHT22;10788;47.930;9.766;2023-04-06T03:06:08;0.10;99.90
21261;DHT22;10788;47.930;9.766;2023-04-06T03:08:34;0.00;99.90
21261;DHT22;10788;47.930;9.766;2023-04-06T03:11:00;0.00;99.90
21261;DHT22;10788;47.930;9.766;2023-04-06T03:13:26;-0.10;99.90
21261;DHT22;10788;47.930;9.766;2023-04-06T03:15:51;-0.10;99.90
21261;DHT22;10788;47.930;9.766;2023-04-06T03:18:24;-0.10;99.90
21261;DHT22;10788;47.930;9.766;2023-04-06T03:20:51;-0.10;99.90
21261;DHT22;10788;47.930;9.766;2023-04-06T03:23:19;-0.10;99.90
21261;DHT22;10788;47.930;9.766;2023-04-06T03:25:46;-0.10;99.90
21261;DHT22;10788;47.930;9.766;2023-04-06T03:28:11;-0.30;99.90
21261;DHT22;10788;47.930;9.766;2023-04-06T03:30:37;-0.30;99.90
21261;DHT22;10788;47.930;9.766;2023-04-06T03:33:03;-0.30;99.90
21261;DHT22;10788;47.930;9.766;2023-04-06T03:35:28;-0.20;99.90
21261;DHT22;10788;47.930;9.766;2023-04-06T03:37:54;-0.30;99.90
21261;DHT22;10788;47.930;9.766;2023-04-06T03:40:20;-0.20;99.90
21261;DHT22;10788;47.930;9.766;2023-04-06T03:42:46;-0.30;99.90
21261;DHT22;10788;47.930;9.766;2023-04-06T03:45:12;-0.30;99.90
21261;DHT22;10788;47.930;9.766;2023-04-06T03:47:39;-0.30;99.90
21261;DHT22;10788;47.930;9.766;2023-04-06T03:50:05;-0.40;99.90
21261;DHT22;10788;47.930;9.766;2023-04-06T03:52:31;-0.30;99.90
21261;DHT22;10788;47.930;9.766;2023-04-06T03:54:57;-0.30;99.90
21261;DHT22;10788;47.930;9.766;2023-04-06T03:57:22;-0.40;99.90
21261;DHT22;10788;47.930;9.766;2023-04-06T03:59:48;-0.30;99.90
21261;DHT22;10788;47.930;9.766;2023-04-06T04:02:14;-0.50;99.90
21261;DHT22;10788;47.930;9.766;2023-04-06T04:04:40;-0.60;99.90
21261;DHT22;10788;47.930;9.766;2023-04-06T04:07:05;-0.50;99.90
21261;DHT22;10788;47.930;9.766;2023-04-06T04:09:31;-0.50;99.90
21261;DHT22;10788;47.930;9.766;2023-04-06T04:11:57;-0.50;99.90
21261;DHT22;10788;47.930;9.766;2023-04-06T04:14:22;-0.50;99.90
21261;DHT22;10788;47.930;9.766;2023-04-06T04:16:48;-0.60;99.90
21261;DHT22;10788;47.930;9.766;2023-04-06T04:19:13;-0.60;99.90
21261;DHT22;10788;47.930;9.766;2023-04-06T04:21:46;-0.70;99.90
21261;DHT22;10788;47.930;9.766;2023-04-06T04:24:12;-0.70;99.90
21261;DHT22;10788;47.930;9.766;2023-04-06T04:26:39;-0.70;99.90
21261;DHT22;10788;47.930;9.766;2023-04-06T04:29:05;-0.80;99.90
21261;DHT22;10788;47.930;9.766;2023-04-06T04:31:31;-0.80;99.90
21261;DHT22;10788;47.930;9.766;2023-04-06T04:33:57;-0.60;99.90
21261;DHT22;10788;47.930;9.766;2023-04-06T04:36:23;-0.80;99.90
21261;DHT22;10788;47.930;9.766;2023-04-06T04:38:51;-0.70;99.90
21261;DHT22;10788;47.930;9.766;2023-04-06T04:41:16;-0.70;99.90
21261;DHT22;10788;47.930;9.766;2023-04-06T04:43:42;-0.60;99.90
21261;DHT22;10788;47.930;9.766;2023-04-06T04:46:08;-0.60;99.90
21261;DHT22;10788;47.930;9.766;2023-04-06T04:48:33;-0.60;99.90
21261;DHT22;10788;47.930;9.766;2023-04-06T04:51:00;-0.60;99.90
21261;DHT22;10788;47.930;9.766;2023-04-06T04:53:25;-0.70;99.90
21261;DHT22;10788;47.930;9.766;2023-04-06T04:55:51;-0.70;99.90
21261;DHT22;10788;47.930;9.766;2023-04-06T04:58:17;-0.70;99.90
21261;DHT22;10788;47.930;9.766;2023-04-06T05:00:44;-0.70;99.90
21261;DHT22;10788;47.930;9.766;2023-04-06T05:03:17;-0.60;99.90
21261;DHT22;10788;47.930;9.766;2023-04-06T05:05:43;-0.50;99.90
21261;DHT22;10788;47.930;9.766;2023-04-06T05:08:09;-0.60;99.90
21261;DHT22;10788;47.930;9.766;2023-04-06T05:10:35;-0.60;99.90
21261;DHT22;10788;47.930;9.766;2023-04-06T05:13:00;-0.70;99.90
21261;DHT22;10788;47.930;9.766;2023-04-06T05:15:26;-0.70;99.90
21261;DHT22;10788;47.930;9.766;2023-04-06T05:17:52;-0.70;99.90
21261;DHT22;10788;47.930;9.766;2023-04-06T05:20:17;-0.70;99.90
21261;DHT22;10788;47.930;9.766;2023-04-06T05:22:43;-0.70;99.90
21261;DHT22;10788;47.930;9.766;2023-04-06T05:25:09;-0.70;99.90
21261;DHT22;10788;47.930;9.766;2023-04-06T05:27:35;-0.70;99.90
21261;DHT22;10788;47.930;9.766;2023-04-06T05:30:01;-0.70;99.90
21261;DHT22;10788;47.930;9.766;2023-04-06T05:32:27;-0.70;99.90
21261;DHT22;10788;47.930;9.766;2023-04-06T05:34:53;-0.80;99.90
21261;DHT22;10788;47.930;9.766;2023-04-06T05:37:19;-0.80;99.90
21261;DHT22;10788;47.930;9.766;2023-04-06T05:39:44;-0.80;99.90
21261;DHT22;10788;47.930;9.766;2023-04-06T05:42:10;-0.70;99.90
21261;DHT22;10788;47.930;9.766;2023-04-06T05:44:37;-0.80;99.90
21261;DHT22;10788;47.930;9.766;2023-04-06T05:47:03;-0.60;99.90
21261;DHT22;10788;47.930;9.766;2023-04-06T05:49:28;-0.60;99.90
21261;DHT22;10788;47.930;9.766;2023-04-06T05:51:54;-0.70;99.90
21261;DHT22;10788;47.930;9.766;2023-04-06T05:54:20;-0.60;99.90
21261;DHT22;10788;47.930;9.766;2023-04-06T05:56:46;-0.50;99.90
21261;DHT22;10788;47.930;9.766;2023-04-06T05:59:11;-0.50;99.90
21261;DHT22;10788;47.930;9.766;2023-04-06T06:01:37;-0.40;99.90
21261;DHT22;10788;47.930;9.766;2023-04-06T06:04:03;-0.30;99.90
21261;DHT22;10788;47.930;9.766;2023-04-06T06:06:29;-0.20;99.90
21261;DHT22;10788;47.930;9.766;2023-04-06T06:08:57;-0.10;99.90
21261;DHT22;10788;47.930;9.766;2023-04-06T06:11:27;0.00;99.90
21261;DHT22;10788;47.930;9.766;2023-04-06T06:13:52;0.10;99.90
21261;DHT22;10788;47.930;9.766;2023-04-06T06:16:19;0.40;99.90
21261;DHT22;10788;47.930;9.766;2023-04-06T06:18:45;0.30;99.90
21261;DHT22;10788;47.930;9.766;2023-04-06T06:21:10;0.60;99.90
21261;DHT22;10788;47.930;9.766;2023-04-06T06:23:39;0.70;99.90
21261;DHT22;10788;47.930;9.766;2023-04-06T06:26:05;0.80;99.90
21261;DHT22;10788;47.930;9.766;2023-04-06T06:28:31;1.00;99.90
21261;DHT22;10788;47.930;9.766;2023-04-06T06:30:57;1.20;99.90
21261;DHT22;10788;47.930;9.766;2023-04-06T06:33:23;1.50;99.90
21261;DHT22;10788;47.930;9.766;2023-04-06T06:35:50;1.50;99.90
21261;DHT22;10788;47.930;9.766;2023-04-06T06:38:16;1.70;99.90
21261;DHT22;10788;47.930;9.766;2023-04-06T06:40:42;1.80;99.90
21261;DHT22;10788;47.930;9.766;2023-04-06T06:43:08;2.00;99.90
21261;DHT22;10788;47.930;9.766;2023-04-06T06:45:34;2.20;99.90
21261;DHT22;10788;47.930;9.766;2023-04-06T06:47:59;2.30;99.90
21261;DHT22;10788;47.930;9.766;2023-04-06T06:50:25;2.40;99.90
21261;DHT22;10788;47.930;9.766;2023-04-06T06:52:51;2.40;99.90
21261;DHT22;10788;47.930;9.766;2023-04-06T06:55:16;2.40;99.90
21261;DHT22;10788;47.930;9.766;2023-04-06T06:57:44;2.40;99.90
21261;DHT22;10788;47.930;9.766;2023-04-06T07:00:12;2.50;99.90
21261;DHT22;10788;47.930;9.766;2023-04-06T07:02:39;2.50;99.90
21261;DHT22;10788;47.930;9.766;2023-04-06T07:05:05;2.60;99.90
21261;DHT22;10788;47.930;9.766;2023-04-06T07:07:32;2.60;99.90
21261;DHT22;10788;47.930;9.766;2023-04-06T07:09:58;2.50;99.90
21261;DHT22;10788;47.930;9.766;2023-04-06T07:12:24;2.60;99.90
21261;DHT22;10788;47.930;9.766;2023-04-06T07:14:49;2.70;99.90
21261;DHT22;10788;47.930;9.766;2023-04-06T07:17:15;2.90;99.90
21261;DHT22;10788;47.930;9.766;2023-04-06T07:19:40;3.10;99.90
21261;DHT22;10788;47.930;9.766;2023-04-06T07:22:06;3.00;99.90
21261;DHT22;10788;47.930;9.766;2023-04-06T07:24:32;3.20;99.90
21261;DHT22;10788;47.930;9.766;2023-04-06T07:26:59;3.30;99.90
21261;DHT22;10788;47.930;9.766;2023-04-06T07:29:26;3.30;99.90
21261;DHT22;10788;47.930;9.766;2023-04-06T07:31:52;3.30;99.90
21261;DHT22;10788;47.930;9.766;2023-04-06T07:34:18;3.50;99.90
21261;DHT22;10788;47.930;9.766;2023-04-06T07:36:43;3.70;99.90
21261;DHT22;10788;47.930;9.766;2023-04-06T07:39:10;3.80;99.90
21261;DHT22;10788;47.930;9.766;2023-04-06T07:41:36;4.10;99.90
21261;DHT22;10788;47.930;9.766;2023-04-06T07:44:01;4.20;99.90
21261;DHT22;10788;47.930;9.766;2023-04-06T07:46:27;4.40;99.90
21261;DHT22;10788;47.930;9.766;2023-04-06T07:48:53;4.60;99.90
21261;DHT22;10788;47.930;9.766;2023-04-06T07:51:19;4.90;99.90
21261;DHT22;10788;47.930;9.766;2023-04-06T07:53:45;5.00;99.90
21261;DHT22;10788;47.930;9.766;2023-04-06T07:56:11;5.20;99.90
21261;DHT22;10788;47.930;9.766;2023-04-06T07:58:37;5.50;99.90
21261;DHT22;10788;47.930;9.766;2023-04-06T08:01:03;5.80;99.90
21261;DHT22;10788;47.930;9.766;2023-04-06T08:03:29;6.00;99.90
21261;DHT22;10788;47.930;9.766;2023-04-06T08:05:55;6.10;99.90
21261;DHT22;10788;47.930;9.766;2023-04-06T08:08:21;6.30;99.90
21261;DHT22;10788;47.930;9.766;2023-04-06T08:10:47;6.50;99.90
21261;DHT22;10788;47.930;9.766;2023-04-06T08:13:14;6.60;99.90
21261;DHT22;10788;47.930;9.766;2023-04-06T08:15:40;6.80;99.90
21261;DHT22;10788;47.930;9.766;2023-04-06T08:18:05;7.10;99.90
21261;DHT22;10788;47.930;9.766;2023-04-06T08:20:31;7.40;99.90
21261;DHT22;10788;47.930;9.766;2023-04-06T08:22:57;7.70;99.90
21261;DHT22;10788;47.930;9.766;2023-04-06T08:25:22;7.70;99.90
21261;DHT22;10788;47.930;9.766;2023-04-06T08:27:48;7.80;99.90
21261;DHT22;10788;47.930;9.766;2023-04-06T08:30:14;7.90;99.90
21261;DHT22;10788;47.930;9.766;2023-04-06T08:32:41;7.90;99.90
21261;DHT22;10788;47.930;9.766;2023-04-06T08:35:07;8.00;99.90
21261;DHT22;10788;47.930;9.766;2023-04-06T08:37:33;8.20;99.90
21261;DHT22;10788;47.930;9.766;2023-04-06T08:39:59;8.40;99.90
21261;DHT22;10788;47.930;9.766;2023-04-06T08:42:26;8.50;99.90
21261;DHT22;10788;47.930;9.766;2023-04-06T08:44:54;8.60;99.90
21261;DHT22;10788;47.930;9.766;2023-04-06T08:47:21;8.60;99.90
21261;DHT22;10788;47.930;9.766;2023-04-06T08:49:46;8.80;99.90
21261;DHT22;10788;47.930;9.766;2023-04-06T08:52:13;9.00;99.90
21261;DHT22;10788;47.930;9.766;2023-04-06T08:54:41;9.10;99.90
21261;DHT22;10788;47.930;9.766;2023-04-06T08:57:07;9.30;99.90
21261;DHT22;10788;47.930;9.766;2023-04-06T08:59:34;9.50;99.90
21261;DHT22;10788;47.930;9.766;2023-04-06T09:02:03;9.60;99.90
21261;DHT22;10788;47.930;9.766;2023-04-06T09:04:32;9.50;99.90
21261;DHT22;10788;47.930;9.766;2023-04-06T09:06:59;9.60;99.90
21261;DHT22;10788;47.930;9.766;2023-04-06T09:09:24;9.80;99.80
21261;DHT22;10788;47.930;9.766;2023-04-06T09:11:51;9.90;98.70
21261;DHT22;10788;47.930;9.766;2023-04-06T09:14:32;10.20;98.50
21261;DHT22;10788;47.930;9.766;2023-04-06T09:16:58;10.50;97.40
21261;DHT22;10788;47.930;9.766;2023-04-06T09:19:23;10.60;95.40
21261;DHT22;10788;47.930;9.766;2023-04-06T09:21:49;10.70;94.60
21261;DHT22;10788;47.930;9.766;2023-04-06T09:24:15;10.80;93.70
21261;DHT22;10788;47.930;9.766;2023-04-06T09:26:47;10.80;97.10
21261;DHT22;10788;47.930;9.766;2023-04-06T09:29:25;10.90;93.10
21261;DHT22;10788;47.930;9.766;2023-04-06T09:31:52;10.80;92.10
21261;DHT22;10788;47.930;9.766;2023-04-06T09:34:21;11.10;92.40
21261;DHT22;10788;47.930;9.766;2023-04-06T09:36:48;11.30;91.50
21261;DHT22;10788;47.930;9.766;2023-04-06T09:39:13;11.30;90.90
21261;DHT22;10788;47.930;9.766;2023-04-06T09:41:40;11.20;91.40
21261;DHT22;10788;47.930;9.766;2023-04-06T09:44:10;11.50;90.20
21261;DHT22;10788;47.930;9.766;2023-04-06T09:46:41;11.50;89.30
21261;DHT22;10788;47.930;9.766;2023-04-06T09:49:09;11.20;89.20
21261;DHT22;10788;47.930;9.766;2023-04-06T09:52:13;11.40;90.60
21261;DHT22;10788;47.930;9.766;2023-04-06T09:54:40;11.90;88.90
21261;DHT22;10788;47.930;9.766;2023-04-06T09:57:08;12.00;88.10
21261;DHT22;10788;47.930;9.766;2023-04-06T10:00:04;12.20;87.70
21261;DHT22;10788;47.930;9.766;2023-04-06T10:05:52;12.40;85.00
21261;DHT22;10788;47.930;9.766;2023-04-06T10:08:21;12.20;85.50
21261;DHT22;10788;47.930;9.766;2023-04-06T10:10:48;12.20;86.30
21261;DHT22;10788;47.930;9.766;2023-04-06T10:13:15;12.00;85.00
21261;DHT22;10788;47.930;9.766;2023-04-06T10:15:42;12.10;85.30
21261;DHT22;10788;47.930;9.766;2023-04-06T10:18:08;12.10;85.90
21261;DHT22;10788;47.930;9.766;2023-04-06T10:23:26;12.40;85.40
21261;DHT22;10788;47.930;9.766;2023-04-06T10:25:55;12.50;85.00
21261;DHT22;10788;47.930;9.766;2023-04-06T10:28:22;12.80;85.10
21261;DHT22;10788;47.930;9.766;2023-04-06T10:30:47;12.50;87.30
21261;DHT22;10788;47.930;9.766;2023-04-06T10:33:19;12.80;89.80
21261;DHT22;10788;47.930;9.766;2023-04-06T10:35:45;13.10;87.90
21261;DHT22;10788;47.930;9.766;2023-04-06T10:38:11;13.50;84.30
21261;DHT22;10788;47.930;9.766;2023-04-06T10:40:40;13.60;81.40
21261;DHT22;10788;47.930;9.766;2023-04-06T10:43:20;13.50;80.20
21261;DHT22;10788;47.930;9.766;2023-04-06T10:45:57;13.20;79.90
21261;DHT22;10788;47.930;9.766;2023-04-06T10:48:24;13.10;79.20
21261;DHT22;10788;47.930;9.766;2023-04-06T10:50:52;13.10;81.80
21261;DHT22;10788;47.930;9.766;2023-04-06T10:53:25;13.20;80.50
21261;DHT22;10788;47.930;9.766;2023-04-06T10:55:54;13.50;80.30
21261;DHT22;10788;47.930;9.766;2023-04-06T10:58:20;13.60;77.80
21261;DHT22;10788;47.930;9.766;2023-04-06T11:00:47;13.40;79.20
21261;DHT22;10788;47.930;9.766;2023-04-06T11:03:13;13.20;80.30
21261;DHT22;10788;47.930;9.766;2023-04-06T11:05:46;13.20;79.60
21261;DHT22;10788;47.930;9.766;2023-04-06T11:08:31;13.00;78.70
21261;DHT22;10788;47.930;9.766;2023-04-06T11:11:15;12.60;80.30
21261;DHT22;10788;47.930;9.766;2023-04-06T11:16:17;12.60;82.30
21261;DHT22;10788;47.930;9.766;2023-04-06T11:18:53;12.70;82.60
21261;DHT22;10788;47.930;9.766;2023-04-06T11:21:32;13.00;83.00
21261;DHT22;10788;47.930;9.766;2023-04-06T11:26:44;13.10;79.80
21261;DHT22;10788;47.930;9.766;2023-04-06T11:29:16;13.00;79.40
21261;DHT22;10788;47.930;9.766;2023-04-06T11:31:45;12.80;78.90
21261;DHT22;10788;47.930;9.766;2023-04-06T11:34:33;12.60;79.50
21261;DHT22;10788;47.930;9.766;2023-04-06T11:37:00;12.20;78.60
21261;DHT22;10788;47.930;9.766;2023-04-06T11:39:28;12.30;78.60
21261;DHT22;10788;47.930;9.766;2023-04-06T11:41:58;12.60;79.70
21261;DHT22;10788;47.930;9.766;2023-04-06T11:46:58;12.50;81.70
21261;DHT22;10788;47.930;9.766;2023-04-06T11:49:28;12.40;77.80
21261;DHT22;10788;47.930;9.766;2023-04-06T11:51:57;12.40;76.60
21261;DHT22;10788;47.930;9.766;2023-04-06T11:54:37;12.40;76.30
21261;DHT22;10788;47.930;9.766;2023-04-06T11:57:07;12.40;76.20
21261;DHT22;10788;47.930;9.766;2023-04-06T11:59:33;12.60;75.10
21261;DHT22;10788;47.930;9.766;2023-04-06T12:01:58;12.80;77.10
21261;DHT22;10788;47.930;9.766;2023-04-06T12:04:24;12.70;74.00
21261;DHT22;10788;47.930;9.766;2023-04-06T12:06:50;12.70;73.60
21261;DHT22;10788;47.930;9.766;2023-04-06T12:09:16;12.70;74.20
21261;DHT22;10788;47.930;9.766;2023-04-06T12:11:46;12.70;75.00
21261;DHT22;10788;47.930;9.766;2023-04-06T12:14:12;12.40;73.50
21261;DHT22;10788;47.930;9.766;2023-04-06T12:16:38;12.20;73.80
21261;DHT22;10788;47.930;9.766;2023-04-06T12:19:04;12.30;74.80
21261;DHT22;10788;47.930;9.766;2023-04-06T12:21:31;12.40;75.70
21261;DHT22;10788;47.930;9.766;2023-04-06T12:24:00;12.60;76.10
21261;DHT22;10788;47.930;9.766;2023-04-06T12:26:30;12.40;74.80
21261;DHT22;10788;47.930;9.766;2023-04-06T12:28:56;12.30;75.60
21261;DHT22;10788;47.930;9.766;2023-04-06T12:31:22;12.30;73.10
21261;DHT22;10788;47.930;9.766;2023-04-06T12:33:51;12.20;72.10
21261;DHT22;10788;47.930;9.766;2023-04-06T12:36:19;12.40;73.40
21261;DHT22;10788;47.930;9.766;2023-04-06T12:38:47;12.40;73.20
21261;DHT22;10788;47.930;9.766;2023-04-06T12:41:13;12.40;70.60
21261;DHT22;10788;47.930;9.766;2023-04-06T12:43:42;12.50;72.00
21261;DHT22;10788;47.930;9.766;2023-04-06T12:46:08;12.50;70.40
21261;DHT22;10788;47.930;9.766;2023-04-06T12:48:34;12.30;72.20
21261;DHT22;10788;47.930;9.766;2023-04-06T12:51:02;12.30;73.10
21261;DHT22;10788;47.930;9.766;2023-04-06T12:53:28;12.40;72.20
21261;DHT22;10788;47.930;9.766;2023-04-06T12:55:55;12.30;71.40
21261;DHT22;10788;47.930;9.766;2023-04-06T12:58:22;12.30;70.20
21261;DHT22;10788;47.930;9.766;2023-04-06T13:00:49;12.40;71.80
21261;DHT22;10788;47.930;9.766;2023-04-06T13:03:15;12.30;70.30
21261;DHT22;10788;47.930;9.766;2023-04-06T13:05:48;12.10;70.50
21261;DHT22;10788;47.930;9.766;2023-04-06T13:08:15;12.10;70.50
21261;DHT22;10788;47.930;9.766;2023-04-06T13:10:47;12.20;70.80
21261;DHT22;10788;47.930;9.766;2023-04-06T13:13:17;12.30;72.80
21261;DHT22;10788;47.930;9.766;2023-04-06T13:15:44;12.40;71.40
21261;DHT22;10788;47.930;9.766;2023-04-06T13:18:10;12.50;71.80
21261;DHT22;10788;47.930;9.766;2023-04-06T13:20:36;12.60;71.00
21261;DHT22;10788;47.930;9.766;2023-04-06T13:23:02;12.10;70.40
21261;DHT22;10788;47.930;9.766;2023-04-06T13:25:28;12.20;71.30
21261;DHT22;10788;47.930;9.766;2023-04-06T13:27:54;12.20;71.90
21261;DHT22;10788;47.930;9.766;2023-04-06T13:30:20;12.30;73.20
21261;DHT22;10788;47.930;9.766;2023-04-06T13:32:46;12.30;72.00
21261;DHT22;10788;47.930;9.766;2023-04-06T13:35:12;12.30;70.30
21261;DHT22;10788;47.930;9.766;2023-04-06T13:37:38;12.40;70.10
21261;DHT22;10788;47.930;9.766;2023-04-06T13:40:04;12.10;70.40
21261;DHT22;10788;47.930;9.766;2023-04-06T13:42:30;12.00;73.50
21261;DHT22;10788;47.930;9.766;2023-04-06T13:44:56;12.00;73.40
21261;DHT22;10788;47.930;9.766;2023-04-06T13:47:21;12.10;72.60
21261;DHT22;10788;47.930;9.766;2023-04-06T13:49:49;12.10;74.00
21261;DHT22;10788;47.930;9.766;2023-04-06T13:52:16;12.30;72.70
21261;DHT22;10788;47.930;9.766;2023-04-06T13:54:42;12.40;73.40
21261;DHT22;10788;47.930;9.766;2023-04-06T13:57:07;12.50;72.80
21261;DHT22;10788;47.930;9.766;2023-04-06T13:59:34;12.50;70.80
21261;DHT22;10788;47.930;9.766;2023-04-06T14:02:04;12.40;70.70
21261;DHT22;10788;47.930;9.766;2023-04-06T14:04:30;12.40;72.20
21261;DHT22;10788;47.930;9.766;2023-04-06T14:06:57;12.50;72.70
21261;DHT22;10788;47.930;9.766;2023-04-06T14:09:22;12.50;71.90
21261;DHT22;10788;47.930;9.766;2023-04-06T14:11:49;12.60;70.80
21261;DHT22;10788;47.930;9.766;2023-04-06T14:14:15;12.50;70.70
21261;DHT22;10788;47.930;9.766;2023-04-06T14:16:41;12.40;69.20
21261;DHT22;10788;47.930;9.766;2023-04-06T14:19:09;12.40;69.80
21261;DHT22;10788;47.930;9.766;2023-04-06T14:21:37;12.30;68.30
21261;DHT22;10788;47.930;9.766;2023-04-06T14:24:03;12.40;70.70
21261;DHT22;10788;47.930;9.766;2023-04-06T14:26:29;12.40;69.00
21261;DHT22;10788;47.930;9.766;2023-04-06T14:28:54;12.30;68.60
21261;DHT22;10788;47.930;9.766;2023-04-06T14:31:21;12.20;70.50
21261;DHT22;10788;47.930;9.766;2023-04-06T14:33:46;12.20;70.60
21261;DHT22;10788;47.930;9.766;2023-04-06T14:36:12;12.30;71.10
21261;DHT22;10788;47.930;9.766;2023-04-06T14:38:38;12.40;71.20
21261;DHT22;10788;47.930;9.766;2023-04-06T14:41:04;12.40;71.40
21261;DHT22;10788;47.930;9.766;2023-04-06T14:43:30;12.50;71.80
21261;DHT22;10788;47.930;9.766;2023-04-06T14:46:00;12.50;71.00
21261;DHT22;10788;47.930;9.766;2023-04-06T14:48:25;12.60;71.10
21261;DHT22;10788;47.930;9.766;2023-04-06T14:50:52;12.60;70.60
21261;DHT22;10788;47.930;9.766;2023-04-06T14:53:22;12.70;71.20
21261;DHT22;10788;47.930;9.766;2023-04-06T14:55:49;12.60;70.70
21261;DHT22;10788;47.930;9.766;2023-04-06T14:58:17;12.50;70.40
21261;DHT22;10788;47.930;9.766;2023-04-06T15:00:42;12.80;69.50
21261;DHT22;10788;47.930;9.766;2023-04-06T15:03:08;12.50;70.30
21261;DHT22;10788;47.930;9.766;2023-04-06T15:05:34;12.30;72.50
21261;DHT22;10788;47.930;9.766;2023-04-06T15:08:00;12.30;72.30
21261;DHT22;10788;47.930;9.766;2023-04-06T15:10:26;12.20;71.50
21261;DHT22;10788;47.930;9.766;2023-04-06T15:12:52;12.00;71.20
21261;DHT22;10788;47.930;9.766;2023-04-06T15:15:17;12.00;71.00
21261;DHT22;10788;47.930;9.766;2023-04-06T15:17:43;11.90;72.20
21261;DHT22;10788;47.930;9.766;2023-04-06T15:20:09;12.10;74.40
21261;DHT22;10788;47.930;9.766;2023-04-06T15:22:35;12.10;74.50
21261;DHT22;10788;47.930;9.766;2023-04-06T15:25:01;12.00;71.20
21261;DHT22;10788;47.930;9.766;2023-04-06T15:27:26;12.00;71.60
21261;DHT22;10788;47.930;9.766;2023-04-06T15:29:52;11.90;70.60
21261;DHT22;10788;47.930;9.766;2023-04-06T15:32:18;11.80;69.30
21261;DHT22;10788;47.930;9.766;2023-04-06T15:34:44;11.70;69.80
21261;DHT22;10788;47.930;9.766;2023-04-06T15:37:10;11.70;70.90
21261;DHT22;10788;47.930;9.766;2023-04-06T15:39:35;11.60;70.70
21261;DHT22;10788;47.930;9.766;2023-04-06T15:42:02;11.60;71.00
21261;DHT22;10788;47.930;9.766;2023-04-06T15:44:28;11.70;71.70
21261;DHT22;10788;47.930;9.766;2023-04-06T15:46:53;11.60;70.10
21261;DHT22;10788;47.930;9.766;2023-04-06T15:49:20;11.60;70.40